createdAt,value
2019-04-23T00:03:21.775Z,64.20
2019-04-23T00:08:35.849Z,64.10
2019-04-23T00:24:04.790Z,66.60
2019-04-23T00:29:08.677Z,66.80
2019-04-23T00:34:09.256Z,67.00
2019-04-23T00:39:15.394Z,67.80
2019-04-23T00:44:38.123Z,68.10
2019-04-23T00:49:58.684Z,69.10
2019-04-23T00:54:48.847Z,68.60
2019-04-23T01:00:03.804Z,69.20
2019-04-23T01:05:05.175Z,70.60
2019-04-23T01:10:13.939Z,70.90
2019-04-23T01:15:25.489Z,71.20
2019-04-23T01:20:52.454Z,72.50
2019-04-23T01:25:57.705Z,73.40
2019-04-23T01:31:20.095Z,74.40
2019-04-23T01:36:28.391Z,74.30
2019-04-23T01:41:45.150Z,75.60
2019-04-23T01:46:49.307Z,77.00
2019-04-23T01:51:55.666Z,77.00
2019-04-23T01:57:06.288Z,77.50
2019-04-23T02:02:14.334Z,77.70
2019-04-23T02:07:24.361Z,78.70
2019-04-23T02:12:28.266Z,78.90
2019-04-23T02:17:38.316Z,80.10
2019-04-23T02:23:01.322Z,81.40
2019-04-23T02:53:53.599Z,85.60
2019-04-23T03:09:17.112Z,86.70
2019-04-23T03:14:27.189Z,87.20
2019-04-23T03:19:55.924Z,87.30
2019-04-23T03:46:16.207Z,88.70
2019-04-23T03:51:16.383Z,89.30
2019-04-23T03:56:37.766Z,89.60
2019-04-23T04:11:47.626Z,90.10
2019-04-23T04:17:03.519Z,90.50
2019-04-23T04:22:08.635Z,90.30
2019-04-23T04:32:22.077Z,90.80
2019-04-23T04:37:56.000Z,90.90
2019-04-23T04:42:43.674Z,91.00
2019-04-23T04:53:12.574Z,91.70
2019-04-23T04:58:12.876Z,92.30
2019-04-23T05:13:41.166Z,92.40
2019-04-23T05:23:50.444Z,92.50
2019-04-23T05:29:00.173Z,92.90
2019-04-23T05:34:04.543Z,93.10
2019-04-23T05:39:26.903Z,93.30
2019-04-23T05:44:21.231Z,93.60
2019-04-23T05:49:24.785Z,93.40
2019-04-23T05:54:43.245Z,93.50
2019-04-23T06:04:49.902Z,93.40
2019-04-23T06:15:18.055Z,93.20
2019-04-23T06:20:27.654Z,93.60
2019-04-23T06:30:48.977Z,93.40
2019-04-23T06:35:53.137Z,93.40
2019-04-23T06:40:55.497Z,92.90
2019-04-23T06:46:02.849Z,92.70
2019-04-23T06:51:12.588Z,92.90
2019-04-23T06:56:21.029Z,92.40
2019-04-23T07:01:30.193Z,91.90
2019-04-23T07:06:38.468Z,91.30
2019-04-23T07:11:40.225Z,90.70
2019-04-23T07:16:52.641Z,90.10
2019-04-23T07:22:12.116Z,91.10
2019-04-23T07:27:11.972Z,91.00
2019-04-23T07:32:32.833Z,90.00
2019-04-23T07:37:23.007Z,87.10
2019-04-23T07:48:10.889Z,85.50
2019-04-23T07:53:16.971Z,86.40
2019-04-23T07:58:23.429Z,84.40
2019-04-23T08:03:48.092Z,83.70
2019-04-23T08:08:42.457Z,83.50
2019-04-23T08:14:08.592Z,84.90
2019-04-23T08:18:57.664Z,85.20
2019-04-23T08:24:45.053Z,86.20
2019-04-23T08:29:43.941Z,84.70
2019-04-23T08:40:06.672Z,85.40
2019-04-23T08:50:40.373Z,85.60
2019-04-23T08:55:49.442Z,84.40
2019-04-23T09:06:06.493Z,83.80
2019-04-23T09:11:30.145Z,83.50
2019-04-23T09:16:22.313Z,82.60
2019-04-23T09:21:30.848Z,81.70
2019-04-23T09:26:47.977Z,84.20
2019-04-23T09:32:18.488Z,81.10
2019-04-23T09:37:18.734Z,81.80
2019-04-23T09:43:00.604Z,81.90
2019-04-23T09:48:18.305Z,80.30
2019-04-23T09:58:21.870Z,81.30
2019-04-23T10:03:21.239Z,83.60
2019-04-23T10:08:26.833Z,80.40
2019-04-23T10:13:26.132Z,78.90
2019-04-23T10:18:33.161Z,78.30
2019-04-23T10:23:41.142Z,78.30
2019-04-23T10:29:03.082Z,76.10
2019-04-23T10:34:10.345Z,75.80
2019-04-23T10:39:25.447Z,75.50
2019-04-23T10:44:46.608Z,74.80
2019-04-23T10:56:01.062Z,76.20
2019-04-23T11:06:25.031Z,75.00
2019-04-23T11:11:27.673Z,74.60
2019-04-23T11:21:42.775Z,75.50
2019-04-23T11:26:57.942Z,75.60
2019-04-23T11:32:05.974Z,75.40
2019-04-23T11:37:16.441Z,75.00
2019-04-23T11:42:18.145Z,75.10
2019-04-23T11:48:04.975Z,75.70
2019-04-23T11:52:42.806Z,73.70
2019-04-23T11:57:56.857Z,75.60
2019-04-23T12:03:07.422Z,74.10
2019-04-23T12:08:47.519Z,73.80
2019-04-23T12:14:03.709Z,73.80
2019-04-23T12:19:32.880Z,73.20
2019-04-23T12:29:29.267Z,72.50
2019-04-23T12:34:37.809Z,74.10
2019-04-23T12:39:43.993Z,72.40
2019-04-23T12:44:56.827Z,72.60
2019-04-23T12:55:23.371Z,71.50
2019-04-23T13:00:17.362Z,71.00
2019-04-23T13:05:21.411Z,71.90
2019-04-23T13:26:11.774Z,72.40
2019-04-23T13:31:22.370Z,72.40
2019-04-23T13:36:41.769Z,69.60
2019-04-23T13:41:40.844Z,70.30
2019-04-23T13:47:01.005Z,69.80
2019-04-23T13:52:12.795Z,72.20
2019-04-23T14:02:56.447Z,69.50
2019-04-23T14:07:32.699Z,70.10
2019-04-23T14:12:42.024Z,70.50
2019-04-23T14:18:00.015Z,71.20
2019-04-23T14:28:16.067Z,70.70
2019-04-23T14:38:23.555Z,72.20
2019-04-23T14:48:39.210Z,70.50
2019-04-23T14:54:03.071Z,70.00
2019-04-23T15:04:04.915Z,72.60
2019-04-23T15:09:36.155Z,72.30
2019-04-23T15:14:17.159Z,72.60
2019-04-23T15:19:45.370Z,72.80
2019-04-23T15:24:48.657Z,73.50
2019-04-23T15:29:39.251Z,73.80
2019-04-23T15:35:05.323Z,73.80
2019-04-23T15:40:08.011Z,73.80
2019-04-23T15:45:19.407Z,74.10
2019-04-23T15:55:27.561Z,73.30
2019-04-23T16:00:42.841Z,72.40
2019-04-23T16:05:21.612Z,72.90
2019-04-23T16:11:10.820Z,72.60
2019-04-23T16:16:06.207Z,72.80
2019-04-23T16:21:20.353Z,71.80
2019-04-23T16:26:22.987Z,72.90
2019-04-23T16:36:41.390Z,74.20
2019-04-23T16:41:54.243Z,75.00
2019-04-23T16:46:55.884Z,76.30
2019-04-23T16:52:08.231Z,76.00
2019-04-23T17:02:21.269Z,75.90
2019-04-23T17:07:27.264Z,76.10
2019-04-23T17:12:38.721Z,76.40
2019-04-23T17:17:46.908Z,77.10
2019-04-23T17:22:56.621Z,77.20
2019-04-23T17:28:11.168Z,77.50
2019-04-23T17:33:21.920Z,78.20
2019-04-23T17:43:35.106Z,78.70
2019-04-23T17:48:44.187Z,79.10
2019-04-23T17:53:59.866Z,79.40
2019-04-23T17:59:04.262Z,79.70
2019-04-23T18:04:29.141Z,80.20
2019-04-23T18:09:18.361Z,81.30
2019-04-23T18:14:17.825Z,81.50
2019-04-23T18:19:29.825Z,82.00
2019-04-23T18:25:06.202Z,82.80
2019-04-23T18:30:24.189Z,83.60
2019-04-23T18:35:24.305Z,84.60
2019-04-23T18:40:40.408Z,85.00
2019-04-23T18:45:54.014Z,85.40
2019-04-23T18:51:00.189Z,86.20
2019-04-23T18:56:06.298Z,87.30
2019-04-23T19:12:25.153Z,89.00
2019-04-23T19:22:44.462Z,89.90
2019-04-23T19:32:54.005Z,90.40
2019-04-23T19:38:01.548Z,90.40
2019-04-23T19:43:12.138Z,90.80
2019-04-23T19:48:25.668Z,91.20
2019-04-23T19:58:51.862Z,91.10
2019-04-23T20:03:50.034Z,91.40
2019-04-23T20:09:21.974Z,91.70
2019-04-23T20:14:02.573Z,91.80
2019-04-23T20:19:31.611Z,92.30
2019-04-23T20:24:41.602Z,92.40
2019-04-23T20:30:26.043Z,92.60
2019-04-23T20:40:30.540Z,93.20
2019-04-23T20:45:39.584Z,93.50
2019-04-23T20:50:44.467Z,93.90
2019-04-23T20:56:04.876Z,94.00
2019-04-23T21:11:24.937Z,94.70
2019-04-23T21:16:36.015Z,94.90
2019-04-23T21:22:02.506Z,95.30
2019-04-23T21:27:39.860Z,95.30
2019-04-23T21:32:49.463Z,95.60
2019-04-23T21:38:00.306Z,95.80
2019-04-23T21:43:10.475Z,96.10
2019-04-23T21:48:27.442Z,96.10
2019-04-23T21:53:25.861Z,96.20
2019-04-23T21:58:46.596Z,96.30
2019-04-23T22:04:06.791Z,96.40
2019-04-23T22:09:02.811Z,96.60
2019-04-23T22:29:38.034Z,97.30
2019-04-23T22:39:57.413Z,97.60
2019-04-23T22:45:07.545Z,97.70
2019-04-23T22:50:06.185Z,98.00
2019-04-23T23:00:16.680Z,98.40
2019-04-23T23:05:53.015Z,98.90
2019-04-23T23:15:55.932Z,98.90
2019-04-23T23:26:09.326Z,99.70
2019-04-23T23:31:18.186Z,99.90
2019-04-23T23:36:31.174Z,99.90
2019-04-23T23:46:56.300Z,99.90
2019-04-23T23:51:54.022Z,99.90
2019-04-23T23:57:04.052Z,99.90
